This is the latest recevied weather packets stored in our database for station/object N7SXG. If no packets are shown the sender has not sent any weather packets the latest 10 day(s).
| Time | Temp. | Humidity | Pressure | Rain* | Wind** | Luminosity | Snow |
|---|---|---|---|---|---|---|---|
| 1777554954 | 6.67° C | 83% | 1016.5 hPa | 0 mm | - | - | - |
| 1777552258 | 6.67° C | 85% | 1015.9 hPa | 0 mm | - | - | - |
| 1777543259 | 5.56° C | 82% | 1014.9 hPa | 0 mm | - | - | - |
| 1777542372 | 5.56° C | 81% | 1015.1 hPa | 0 mm | - | - | - |
| 1777537856 | 6.11° C | 84% | 1014.9 hPa | 0 mm | - | - | - |
| 1777530655 | 7.22° C | 78% | 1014.9 hPa | 0 mm | - | - | - |
| 1777529758 | 7.22° C | 78% | 1015 hPa | 0 mm | - | - | - |
| 1777527956 | 7.22° C | 77% | 1015.1 hPa | 0 mm | - | - | - |
| 1777510854 | 12.22° C | 70% | 1013.5 hPa | 0 mm | - | - | - |
| 1777508155 | 13.33° C | 67% | 1013.2 hPa | 0 mm | - | - | - |
| 1777506364 | 14.44° C | 66% | 1012.8 hPa | 0 mm | - | - | - |
| 1777491955 | 16.67° C | 76% | 1011.2 hPa | 0 mm | - | - | - |
| 1777490167 | 15.56° C | 78% | 1011.4 hPa | 0 mm | - | - | - |
| 1777488356 | 16.11° C | 83% | 1011.2 hPa | 0 mm | - | - | - |
| 1777480255 | 12.78° C | 93% | 1011.5 hPa | 0 mm | - | - | - |
| 1777479368 | 12.78° C | 93% | 1011.4 hPa | 1.02 mm | - | - | - |
| 1777478462 | 12.78° C | 93% | 1011.4 hPa | 1.27 mm | - | - | - |
| 1777476657 | 12.78° C | 94% | 1011.2 hPa | 1.52 mm | - | - | - |
| 1777472170 | 12.78° C | 93% | 1011 hPa | 0.25 mm | - | - | - |
| 1777452355 | 11.67° C | 88% | 1012.4 hPa | 4.57 mm | - | - | - |
| 1777450558 | 12.22° C | 87% | 1012.8 hPa | 7.11 mm | - | - | - |
| 1777446956 | 12.78° C | 86% | 1013.8 hPa | 0.25 mm | - | - | - |
| 1777440657 | 12.78° C | 84% | 1013.6 hPa | 0 mm | - | - | - |
| 1777419964 | 19.44° C | 67% | 1014.4 hPa | 0 mm | - | - | - |
| 1777417258 | 20° C | 64% | 1013.8 hPa | 0 mm | - | - | - |
* Rain latest hour (hover to see other rain measurements)
** Current wind speed in m/s (hover to see current wind gust speed)